Time;durP1;ratioP1;P1;durP2;ratioP2;P2;SDS_P1;SDS_P2;PMS_P1;PMS_P2;Temp;Humidity;BMP_temperature;BMP_pressure;BME280_temperature;BME280_humidity;BME280_pressure;Samples;Min_cycle;Max_cycle;Signal;HPM_P1;HPM_P2
2023/01/29 00:01:55;;;;;;;;;;;18.90;41.80;;;;;;5027479;28;20038;-61
2023/01/29 00:04:22;;;;;;;;;;;18.90;41.80;;;;;;5050810;28;19974;-73
2023/01/29 00:06:49;;;;;;;;;;;18.90;41.70;;;;;;5031595;28;19921;-63
2023/01/29 00:09:18;;;;;;;;;;;18.90;41.70;;;;;;5061146;28;19928;-59
2023/01/29 00:11:44;;;;;;;;;;;18.90;41.70;;;;;;5038682;28;20275;-59
2023/01/29 00:14:11;;;;;;;;;;;18.90;41.70;;;;;;5028761;28;19998;-60
2023/01/29 00:16:38;;;;;;;;;;;18.90;41.70;;;;;;5016168;28;20343;-63
2023/01/29 00:19:05;;;;;;;;;;;18.90;41.70;;;;;;5033686;28;19925;-61
2023/01/29 00:21:32;;;;;;;;;;;18.90;41.70;;;;;;5024167;28;19970;-59
2023/01/29 00:23:58;;;;;;;;;;;18.90;41.70;;;;;;5038616;28;19956;-59
2023/01/29 00:26:27;;;;;;;;;;;18.90;41.70;;;;;;5016083;28;19921;-60
2023/01/29 00:28:53;;;;;;;;;;;18.90;41.70;;;;;;5027375;28;19967;-60
2023/01/29 00:31:21;;;;;;;;;;;18.90;41.70;;;;;;5040132;28;19936;-67
2023/01/29 00:33:48;;;;;;;;;;;18.90;41.70;;;;;;5028798;28;19921;-60
2023/01/29 00:36:15;;;;;;;;;;;18.90;41.70;;;;;;5032730;28;19921;-66
2023/01/29 00:38:41;;;;;;;;;;;18.90;41.70;;;;;;5017121;28;19924;-59
2023/01/29 00:46:38;;;;;;;;;;;18.90;41.70;;;;;;5028143;28;19921;-64
2023/01/29 00:49:05;;;;;;;;;;;18.90;41.70;;;;;;5019865;28;20413;-64
2023/01/29 00:51:32;;;;;;;;;;;18.90;41.70;;;;;;5023690;28;19920;-59
2023/01/29 00:53:59;;;;;;;;;;;18.90;41.70;;;;;;5016364;28;19921;-65
2023/01/29 00:56:25;;;;;;;;;;;18.90;41.60;;;;;;5019108;28;19925;-60
2023/01/29 00:58:53;;;;;;;;;;;18.90;41.70;;;;;;5063150;28;19967;-61
2023/01/29 01:03:04;;;;;;;;;;;18.90;41.60;;;;;;5041593;28;19970;-63
2023/01/29 01:04:06;;;;;;;;;;;18.90;41.60;;;;;;5034222;28;19977;-62
2023/01/29 01:06:33;;;;;;;;;;;18.90;41.60;;;;;;5028057;28;20024;-66
2023/01/29 01:11:44;;;;;;;;;;;18.90;41.60;;;;;;5036612;28;19925;-62
2023/01/29 01:14:12;;;;;;;;;;;18.90;41.60;;;;;;5020779;28;19921;-59
2023/01/29 01:16:39;;;;;;;;;;;18.90;41.60;;;;;;5029730;28;19921;-66
2023/01/29 01:19:06;;;;;;;;;;;18.90;41.60;;;;;;5018861;28;20358;-60
2023/01/29 01:21:33;;;;;;;;;;;18.90;41.60;;;;;;5059772;28;19921;-62
2023/01/29 01:23:59;;;;;;;;;;;18.90;41.60;;;;;;5035045;28;19928;-65
2023/01/29 01:26:26;;;;;;;;;;;18.90;41.60;;;;;;5021339;28;19921;-61
2023/01/29 01:28:53;;;;;;;;;;;18.90;41.60;;;;;;5045759;28;19925;-61
2023/01/29 01:31:22;;;;;;;;;;;18.90;41.60;;;;;;5022201;28;19921;-64
2023/01/29 01:33:50;;;;;;;;;;;18.90;41.60;;;;;;5025190;28;19920;-62
2023/01/29 01:36:17;;;;;;;;;;;18.80;41.50;;;;;;5034469;28;20376;-63
2023/01/29 01:38:44;;;;;;;;;;;18.90;41.60;;;;;;5030247;28;19928;-59
2023/01/29 01:41:11;;;;;;;;;;;18.90;41.60;;;;;;5045128;28;19974;-59
2023/01/29 01:43:48;;;;;;;;;;;18.80;41.50;;;;;;5056511;28;20050;-65
2023/01/29 01:46:15;;;;;;;;;;;18.90;41.60;;;;;;5034886;28;19932;-60
2023/01/29 01:48:43;;;;;;;;;;;18.90;41.60;;;;;;5027319;28;19932;-62
2023/01/29 01:51:10;;;;;;;;;;;18.90;41.60;;;;;;5019932;28;19983;-59
2023/01/29 01:53:38;;;;;;;;;;;18.90;41.60;;;;;;5030831;28;19972;-63
2023/01/29 01:56:06;;;;;;;;;;;18.90;41.60;;;;;;5021903;28;20282;-63
2023/01/29 01:58:33;;;;;;;;;;;18.80;41.40;;;;;;5030696;28;19921;-64
2023/01/29 02:01:00;;;;;;;;;;;18.90;41.50;;;;;;5024568;28;19921;-60
2023/01/29 02:11:42;;;;;;;;;;;18.90;41.50;;;;;;5012413;28;19921;-60
2023/01/29 02:14:09;;;;;;;;;;;18.90;41.50;;;;;;5018698;28;19978;-63
2023/01/29 02:16:35;;;;;;;;;;;18.80;41.40;;;;;;5028802;28;19936;-63
2023/01/29 02:19:02;;;;;;;;;;;18.80;41.40;;;;;;5012080;28;19925;-61
2023/01/29 02:21:41;;;;;;;;;;;18.90;41.50;;;;;;5012190;28;19932;-59
2023/01/29 02:24:17;;;;;;;;;;;18.90;41.50;;;;;;5027760;28;20315;-61
2023/01/29 02:26:47;;;;;;;;;;;18.80;41.40;;;;;;5036398;28;19921;-66
2023/01/29 02:29:26;;;;;;;;;;;18.80;41.40;;;;;;5028547;28;19979;-62
2023/01/29 02:31:58;;;;;;;;;;;18.80;41.30;;;;;;5045678;28;19924;-59
2023/01/29 02:34:27;;;;;;;;;;;18.80;41.30;;;;;;5030707;28;19920;-65
2023/01/29 02:36:55;;;;;;;;;;;18.80;41.30;;;;;;5030759;28;19964;-60
2023/01/29 02:39:23;;;;;;;;;;;18.80;41.30;;;;;;5023367;28;20003;-64
2023/01/29 02:41:53;;;;;;;;;;;18.80;41.30;;;;;;5029329;28;19956;-60
2023/01/29 02:44:23;;;;;;;;;;;18.80;41.30;;;;;;5033311;28;19936;-67
2023/01/29 02:46:52;;;;;;;;;;;18.80;41.30;;;;;;5022055;28;19936;-63
2023/01/29 02:49:22;;;;;;;;;;;18.80;41.30;;;;;;5036869;28;20326;-60
2023/01/29 02:51:49;;;;;;;;;;;18.80;41.30;;;;;;5037806;28;19956;-62
2023/01/29 02:54:17;;;;;;;;;;;18.80;41.30;;;;;;5028408;28;19924;-60
2023/01/29 02:56:45;;;;;;;;;;;18.80;41.30;;;;;;5031337;28;20388;-72
2023/01/29 02:59:12;;;;;;;;;;;18.80;41.30;;;;;;5024558;28;20214;-62
2023/01/29 03:01:42;;;;;;;;;;;18.80;41.30;;;;;;5039226;28;19921;-60
2023/01/29 03:04:10;;;;;;;;;;;18.80;41.30;;;;;;5022780;28;19921;-62
2023/01/29 03:06:38;;;;;;;;;;;18.80;41.30;;;;;;5032498;28;19925;-60
2023/01/29 03:09:05;;;;;;;;;;;18.80;41.30;;;;;;5043844;28;19979;-65
2023/01/29 03:11:32;;;;;;;;;;;18.80;41.30;;;;;;5023860;28;20038;-60
2023/01/29 03:13:59;;;;;;;;;;;18.80;41.20;;;;;;5026993;28;19990;-60
2023/01/29 03:16:27;;;;;;;;;;;18.80;41.20;;;;;;5035755;28;20068;-61
2023/01/29 03:18:56;;;;;;;;;;;18.80;41.20;;;;;;5029430;28;19971;-63
2023/01/29 03:32:23;;;;;;;;;;;18.80;41.20;;;;;;5030358;28;20019;-60
2023/01/29 03:34:52;;;;;;;;;;;18.80;41.20;;;;;;5036155;28;19974;-66
2023/01/29 03:37:20;;;;;;;;;;;18.80;41.20;;;;;;5044428;28;19925;-59
2023/01/29 03:39:47;;;;;;;;;;;18.80;41.20;;;;;;5039141;28;19960;-68
2023/01/29 03:42:16;;;;;;;;;;;18.80;41.20;;;;;;5022618;28;19925;-62
2023/01/29 03:44:46;;;;;;;;;;;18.80;41.20;;;;;;5030086;28;19970;-59
2023/01/29 03:47:14;;;;;;;;;;;18.80;41.20;;;;;;5033809;28;19964;-60
2023/01/29 03:49:44;;;;;;;;;;;18.80;41.20;;;;;;5026345;28;20275;-65
2023/01/29 03:52:13;;;;;;;;;;;18.80;41.10;;;;;;5024724;28;19976;-59
2023/01/29 03:54:41;;;;;;;;;;;18.80;41.10;;;;;;5038823;28;19936;-62
2023/01/29 03:57:14;;;;;;;;;;;18.80;41.20;;;;;;5037215;28;19990;-63
2023/01/29 03:59:41;;;;;;;;;;;18.80;41.10;;;;;;5063069;28;19931;-60
2023/01/29 04:02:08;;;;;;;;;;;18.80;41.10;;;;;;5042742;28;19921;-65
2023/01/29 04:04:36;;;;;;;;;;;18.80;41.20;;;;;;5033801;28;19947;-59
2023/01/29 04:07:04;;;;;;;;;;;18.80;41.20;;;;;;5037299;28;20011;-63
2023/01/29 04:09:33;;;;;;;;;;;18.80;41.20;;;;;;5030147;28;19954;-59
2023/01/29 04:12:00;;;;;;;;;;;18.80;41.10;;;;;;5056777;28;20004;-59
2023/01/29 04:14:27;;;;;;;;;;;18.80;41.10;;;;;;5033180;28;20016;-59
2023/01/29 04:16:55;;;;;;;;;;;18.80;41.10;;;;;;5037076;28;19929;-59
2023/01/29 04:19:22;;;;;;;;;;;18.80;41.10;;;;;;5029956;28;19931;-59
2023/01/29 04:21:49;;;;;;;;;;;18.80;41.10;;;;;;5018646;28;20426;-63
2023/01/29 04:24:16;;;;;;;;;;;18.80;41.10;;;;;;5042174;28;20028;-60
2023/01/29 04:26:50;;;;;;;;;;;18.80;41.10;;;;;;5032989;28;19975;-58
2023/01/29 04:29:21;;;;;;;;;;;18.80;41.70;;;;;;5027066;28;19924;-69
2023/01/29 04:31:50;;;;;;;;;;;18.80;41.10;;;;;;5018147;28;19920;-59
2023/01/29 04:34:19;;;;;;;;;;;18.80;41.10;;;;;;5024655;28;19952;-62
2023/01/29 04:36:48;;;;;;;;;;;18.80;41.10;;;;;;5025820;28;19992;-59
2023/01/29 04:39:17;;;;;;;;;;;18.80;41.10;;;;;;5032744;28;20011;-62
2023/01/29 04:41:46;;;;;;;;;;;18.80;41.10;;;;;;5025997;28;20001;-66
2023/01/29 04:44:16;;;;;;;;;;;18.80;41.10;;;;;;5039091;28;20047;-67
2023/01/29 04:46:46;;;;;;;;;;;18.80;41.10;;;;;;5031376;28;19964;-65
2023/01/29 04:49:15;;;;;;;;;;;18.80;41.10;;;;;;5029395;28;19933;-60
2023/01/29 04:51:44;;;;;;;;;;;18.80;41.10;;;;;;5046674;28;20039;-61
2023/01/29 04:54:12;;;;;;;;;;;18.80;41.10;;;;;;5028755;28;19921;-59
2023/01/29 04:56:40;;;;;;;;;;;18.80;41.10;;;;;;5038340;28;20083;-67
2023/01/29 04:59:07;;;;;;;;;;;18.80;41.10;;;;;;5028581;28;19932;-64
2023/01/29 05:01:35;;;;;;;;;;;18.80;41.10;;;;;;5014970;28;20369;-60
2023/01/29 05:04:03;;;;;;;;;;;18.80;41.10;;;;;;5022668;28;19928;-62
2023/01/29 05:06:30;;;;;;;;;;;18.70;41.00;;;;;;5021834;28;19964;-61
2023/01/29 05:08:56;;;;;;;;;;;18.70;41.00;;;;;;5026986;28;19932;-62
2023/01/29 05:11:23;;;;;;;;;;;18.70;41.00;;;;;;5048893;28;19980;-60
2023/01/29 05:13:50;;;;;;;;;;;18.80;41.10;;;;;;5012714;28;19991;-64
2023/01/29 05:16:17;;;;;;;;;;;18.80;41.00;;;;;;5021203;28;19929;-62
2023/01/29 05:18:45;;;;;;;;;;;18.70;41.00;;;;;;5019404;28;19921;-65
2023/01/29 05:21:12;;;;;;;;;;;18.80;41.00;;;;;;5028558;28;19924;-60
2023/01/29 05:23:38;;;;;;;;;;;18.80;41.00;;;;;;5016253;28;20027;-58
2023/01/29 05:26:05;;;;;;;;;;;18.80;41.00;;;;;;5061688;28;19964;-60
2023/01/29 05:28:31;;;;;;;;;;;18.80;41.00;;;;;;5038824;28;19975;-63
2023/01/29 05:30:58;;;;;;;;;;;18.80;41.00;;;;;;5026221;28;19964;-61
2023/01/29 05:33:25;;;;;;;;;;;18.80;41.00;;;;;;5049249;28;19921;-61
2023/01/29 05:35:54;;;;;;;;;;;18.80;41.00;;;;;;5026644;28;20243;-63
2023/01/29 05:38:20;;;;;;;;;;;18.80;41.00;;;;;;5021249;28;20234;-66
2023/01/29 05:40:47;;;;;;;;;;;18.80;41.00;;;;;;5038624;28;19933;-60
2023/01/29 05:43:15;;;;;;;;;;;18.80;41.00;;;;;;5015865;28;19921;-59
2023/01/29 05:45:41;;;;;;;;;;;18.80;41.00;;;;;;5027774;28;20015;-60
2023/01/29 05:48:08;;;;;;;;;;;18.80;41.00;;;;;;5037166;28;20470;-60
2023/01/29 05:50:35;;;;;;;;;;;18.80;41.00;;;;;;5020528;28;19921;-65
2023/01/29 05:53:04;;;;;;;;;;;18.80;40.90;;;;;;5022838;28;20041;-63
2023/01/29 05:55:31;;;;;;;;;;;18.80;41.00;;;;;;5045390;28;19921;-64
2023/01/29 05:57:58;;;;;;;;;;;18.80;41.00;;;;;;5017550;28;19920;-59
2023/01/29 06:00:24;;;;;;;;;;;18.80;40.90;;;;;;5053742;28;20154;-64
2023/01/29 06:02:51;;;;;;;;;;;18.70;40.90;;;;;;5046714;28;19996;-60
2023/01/29 06:05:18;;;;;;;;;;;18.70;40.90;;;;;;5023505;28;20374;-60
2023/01/29 06:07:45;;;;;;;;;;;18.80;40.90;;;;;;5023289;28;20039;-67
2023/01/29 06:10:14;;;;;;;;;;;18.80;41.00;;;;;;5034121;28;19975;-62
2023/01/29 06:12:41;;;;;;;;;;;18.80;41.00;;;;;;5044484;28;19940;-66
2023/01/29 06:15:08;;;;;;;;;;;18.80;41.00;;;;;;5016735;28;19925;-64
2023/01/29 06:17:34;;;;;;;;;;;18.80;40.90;;;;;;5034064;28;20023;-60
2023/01/29 06:20:01;;;;;;;;;;;18.80;40.90;;;;;;5049340;28;19927;-67
2023/01/29 06:22:28;;;;;;;;;;;18.70;40.90;;;;;;5020929;28;19991;-66
2023/01/29 06:24:55;;;;;;;;;;;18.80;40.90;;;;;;5027883;28;19921;-63
2023/01/29 06:27:23;;;;;;;;;;;18.80;40.90;;;;;;5017500;28;19925;-63
2023/01/29 06:29:50;;;;;;;;;;;18.80;40.90;;;;;;5021767;28;19928;-62
2023/01/29 06:32:17;;;;;;;;;;;18.80;40.90;;;;;;5024091;28;19925;-61
2023/01/29 06:34:43;;;;;;;;;;;18.80;40.90;;;;;;5023240;28;19921;-60
2023/01/29 06:37:10;;;;;;;;;;;18.70;40.80;;;;;;5010890;28;19932;-62
2023/01/29 06:39:37;;;;;;;;;;;18.80;40.90;;;;;;5019327;28;19929;-63
2023/01/29 06:42:07;;;;;;;;;;;18.80;40.90;;;;;;5023074;28;19978;-69
2023/01/29 06:44:35;;;;;;;;;;;18.80;40.90;;;;;;5030411;28;19929;-61
2023/01/29 06:47:02;;;;;;;;;;;18.80;40.90;;;;;;5050916;28;19962;-62
2023/01/29 06:49:29;;;;;;;;;;;18.80;40.90;;;;;;5026226;28;19991;-60
2023/01/29 06:51:56;;;;;;;;;;;18.70;40.80;;;;;;5024553;28;19921;-68
2023/01/29 06:54:23;;;;;;;;;;;18.80;40.90;;;;;;5029566;28;19928;-68
2023/01/29 06:56:50;;;;;;;;;;;18.80;40.90;;;;;;5036280;28;19925;-60
2023/01/29 06:59:16;;;;;;;;;;;18.80;40.90;;;;;;5037033;28;19921;-59
2023/01/29 07:01:45;;;;;;;;;;;18.80;40.90;;;;;;5023500;28;20602;-64
2023/01/29 07:04:11;;;;;;;;;;;18.70;40.80;;;;;;5022338;28;19929;-59
2023/01/29 07:06:38;;;;;;;;;;;18.80;40.90;;;;;;5031108;28;19982;-58
2023/01/29 07:09:05;;;;;;;;;;;18.70;40.80;;;;;;5044464;28;19929;-61
2023/01/29 07:11:32;;;;;;;;;;;18.80;40.90;;;;;;5052795;28;19928;-59
2023/01/29 07:13:59;;;;;;;;;;;18.80;40.90;;;;;;5061498;28;19921;-63
2023/01/29 07:16:25;;;;;;;;;;;18.80;40.90;;;;;;5056828;28;19996;-60
2023/01/29 07:18:53;;;;;;;;;;;18.80;40.90;;;;;;5017766;28;19932;-60
2023/01/29 07:21:20;;;;;;;;;;;18.80;40.90;;;;;;5065557;28;19920;-60
2023/01/29 07:23:47;;;;;;;;;;;18.70;40.80;;;;;;5046724;28;19929;-65
2023/01/29 07:26:14;;;;;;;;;;;18.70;40.80;;;;;;5039519;28;20215;-60
2023/01/29 07:28:40;;;;;;;;;;;18.70;40.70;;;;;;5030722;28;19971;-60
2023/01/29 07:31:07;;;;;;;;;;;18.70;40.80;;;;;;5018312;28;20334;-66
2023/01/29 07:33:34;;;;;;;;;;;18.70;40.70;;;;;;5026035;28;19967;-59
2023/01/29 07:36:02;;;;;;;;;;;18.70;40.80;;;;;;5025623;28;20271;-59
2023/01/29 07:38:29;;;;;;;;;;;18.70;40.70;;;;;;5027441;28;19928;-61
2023/01/29 07:40:55;;;;;;;;;;;18.70;40.70;;;;;;5024613;28;19920;-65
2023/01/29 07:43:23;;;;;;;;;;;18.70;40.70;;;;;;5020218;28;19943;-61
2023/01/29 07:45:50;;;;;;;;;;;18.70;40.70;;;;;;5039620;28;19921;-63
2023/01/29 07:48:17;;;;;;;;;;;18.70;40.70;;;;;;5040416;28;19921;-61
2023/01/29 07:50:44;;;;;;;;;;;18.70;40.70;;;;;;5024327;28;19925;-59
2023/01/29 07:53:13;;;;;;;;;;;18.70;40.70;;;;;;5024040;28;19921;-60
2023/01/29 07:55:40;;;;;;;;;;;18.70;40.70;;;;;;5027230;28;19920;-60
2023/01/29 07:58:07;;;;;;;;;;;18.70;40.70;;;;;;5024085;28;19925;-59
2023/01/29 08:00:34;;;;;;;;;;;18.70;40.70;;;;;;5026571;28;19921;-65
2023/01/29 08:03:04;;;;;;;;;;;18.70;40.70;;;;;;5020437;28;20026;-64
2023/01/29 08:05:30;;;;;;;;;;;18.70;40.70;;;;;;5024332;28;19920;-60
2023/01/29 08:07:57;;;;;;;;;;;18.70;40.70;;;;;;5024680;28;19937;-64
2023/01/29 08:10:25;;;;;;;;;;;18.70;40.70;;;;;;5019201;28;19921;-63
2023/01/29 08:12:55;;;;;;;;;;;18.70;40.70;;;;;;5024743;28;19924;-59
2023/01/29 08:15:22;;;;;;;;;;;18.70;40.70;;;;;;5040788;28;20321;-67
2023/01/29 08:17:49;;;;;;;;;;;18.70;40.70;;;;;;5019424;28;19925;-59
2023/01/29 08:20:16;;;;;;;;;;;18.70;40.60;;;;;;5024793;28;20173;-64
2023/01/29 08:22:43;;;;;;;;;;;18.70;40.70;;;;;;5021946;28;19925;-59
2023/01/29 08:25:10;;;;;;;;;;;18.70;40.60;;;;;;5040390;28;19972;-59
2023/01/29 08:27:38;;;;;;;;;;;18.70;40.70;;;;;;5019406;28;19933;-64
2023/01/29 08:30:05;;;;;;;;;;;18.70;40.70;;;;;;5022795;28;20398;-61
2023/01/29 08:32:32;;;;;;;;;;;18.70;40.70;;;;;;5021705;28;19967;-60
2023/01/29 08:34:59;;;;;;;;;;;18.70;40.70;;;;;;5043058;28;20046;-66
2023/01/29 08:37:25;;;;;;;;;;;18.70;40.70;;;;;;5038501;28;19920;-63
2023/01/29 08:39:52;;;;;;;;;;;18.70;40.70;;;;;;5020658;28;19921;-59
2023/01/29 08:42:19;;;;;;;;;;;18.70;40.70;;;;;;5033791;28;19924;-64
2023/01/29 08:44:47;;;;;;;;;;;18.70;40.70;;;;;;5030396;28;19932;-68
2023/01/29 08:47:14;;;;;;;;;;;18.70;40.70;;;;;;5030728;28;19963;-59
2023/01/29 08:49:40;;;;;;;;;;;18.70;40.70;;;;;;5024681;28;20346;-61
2023/01/29 08:52:07;;;;;;;;;;;18.70;40.70;;;;;;5010769;28;19921;-66
2023/01/29 08:54:34;;;;;;;;;;;18.70;40.70;;;;;;5017550;28;19923;-59
2023/01/29 08:57:00;;;;;;;;;;;18.70;40.70;;;;;;5011337;28;19975;-63
2023/01/29 08:59:27;;;;;;;;;;;18.70;40.70;;;;;;5010959;28;19936;-59
2023/01/29 09:01:56;;;;;;;;;;;18.70;40.70;;;;;;5038958;28;19925;-63
2023/01/29 09:04:23;;;;;;;;;;;18.70;40.60;;;;;;5020419;28;19945;-64
2023/01/29 09:06:49;;;;;;;;;;;18.70;40.70;;;;;;5010716;28;19924;-62
2023/01/29 09:09:17;;;;;;;;;;;18.70;40.70;;;;;;5037262;28;19974;-63
2023/01/29 09:11:43;;;;;;;;;;;18.70;40.70;;;;;;5024830;28;19963;-71
2023/01/29 09:14:11;;;;;;;;;;;18.70;40.70;;;;;;5022677;28;19929;-63
2023/01/29 09:16:37;;;;;;;;;;;18.70;40.70;;;;;;5044537;28;19928;-60
2023/01/29 09:19:07;;;;;;;;;;;18.70;40.70;;;;;;5027297;28;19932;-65
2023/01/29 09:21:33;;;;;;;;;;;18.70;40.70;;;;;;5030942;28;19924;-60
2023/01/29 09:24:00;;;;;;;;;;;18.70;40.70;;;;;;5019325;28;19976;-61
2023/01/29 09:26:27;;;;;;;;;;;18.70;40.70;;;;;;5055416;28;19932;-59
2023/01/29 09:28:54;;;;;;;;;;;18.70;40.70;;;;;;5015789;28;19947;-65
2023/01/29 09:31:20;;;;;;;;;;;18.70;40.70;;;;;;5022294;28;19998;-62
2023/01/29 09:33:48;;;;;;;;;;;18.70;40.70;;;;;;5045932;28;19956;-65
2023/01/29 09:36:16;;;;;;;;;;;18.70;40.70;;;;;;5019536;28;19920;-62
2023/01/29 09:38:42;;;;;;;;;;;18.70;40.70;;;;;;5020302;28;19924;-74
2023/01/29 09:41:26;;;;;;;;;;;18.80;40.80;;;;;;5015291;28;19928;-64
2023/01/29 09:43:53;;;;;;;;;;;18.70;40.70;;;;;;5023196;28;19931;-65
2023/01/29 09:46:21;;;;;;;;;;;18.70;40.70;;;;;;5026171;28;19958;-60
2023/01/29 09:48:47;;;;;;;;;;;18.70;40.70;;;;;;5027403;28;19928;-61
2023/01/29 09:51:19;;;;;;;;;;;18.70;40.70;;;;;;5061706;28;19932;-62
2023/01/29 09:53:46;;;;;;;;;;;18.80;40.80;;;;;;5027393;28;19929;-60
2023/01/29 09:56:13;;;;;;;;;;;18.70;40.70;;;;;;5026915;28;19933;-60
2023/01/29 09:58:41;;;;;;;;;;;18.70;40.70;;;;;;5027417;28;19972;-60
2023/01/29 10:01:10;;;;;;;;;;;18.70;40.70;;;;;;5043754;28;19928;-61
2023/01/29 10:03:55;;;;;;;;;;;18.70;40.70;;;;;;5041087;28;20245;-63
2023/01/29 10:06:25;;;;;;;;;;;18.70;40.80;;;;;;5027093;28;20007;-61
2023/01/29 10:09:00;;;;;;;;;;;18.70;40.70;;;;;;5012198;28;19926;-64
2023/01/29 10:11:29;;;;;;;;;;;18.70;40.80;;;;;;5030335;28;19960;-62
2023/01/29 10:13:58;;;;;;;;;;;18.80;40.90;;;;;;5022910;28;19925;-63
2023/01/29 10:16:29;;;;;;;;;;;18.80;40.90;;;;;;5026428;28;19960;-62
2023/01/29 10:19:14;;;;;;;;;;;18.80;40.90;;;;;;5031599;28;19921;-60
2023/01/29 10:21:52;;;;;;;;;;;18.80;40.80;;;;;;4990140;28;19929;-59
2023/01/29 10:24:22;;;;;;;;;;;18.80;40.90;;;;;;5043207;28;20363;-63
2023/01/29 10:26:49;;;;;;;;;;;18.80;40.90;;;;;;5024121;28;19928;-62
2023/01/29 10:29:16;;;;;;;;;;;18.80;40.90;;;;;;5024964;28;20199;-58
2023/01/29 10:31:43;;;;;;;;;;;18.80;40.90;;;;;;5022019;28;19922;-61
2023/01/29 10:34:11;;;;;;;;;;;18.80;40.90;;;;;;5020029;28;19921;-68
2023/01/29 10:36:38;;;;;;;;;;;18.80;40.90;;;;;;5023703;28;20184;-62
2023/01/29 10:39:09;;;;;;;;;;;18.70;40.80;;;;;;5041938;28;19925;-60
2023/01/29 10:41:42;;;;;;;;;;;18.70;40.80;;;;;;5015543;28;20023;-59
2023/01/29 10:44:22;;;;;;;;;;;18.80;40.90;;;;;;5039363;28;20260;-65
2023/01/29 10:46:52;;;;;;;;;;;18.80;40.90;;;;;;5020980;28;19974;-61
2023/01/29 10:49:23;;;;;;;;;;;18.80;40.90;;;;;;5034007;28;19921;-63
2023/01/29 10:51:57;;;;;;;;;;;18.70;40.80;;;;;;5052687;28;19921;-58
2023/01/29 10:54:29;;;;;;;;;;;18.80;40.90;;;;;;5034432;28;19921;-58
2023/01/29 10:57:00;;;;;;;;;;;18.80;40.90;;;;;;5033638;28;19924;-59
2023/01/29 10:59:30;;;;;;;;;;;18.80;40.90;;;;;;5046467;28;19928;-61
2023/01/29 11:01:57;;;;;;;;;;;18.80;40.90;;;;;;5014420;28;20020;-66
2023/01/29 11:04:24;;;;;;;;;;;18.70;40.80;;;;;;5040663;28;19931;-64
2023/01/29 11:06:51;;;;;;;;;;;18.80;40.90;;;;;;5034536;28;19960;-66
2023/01/29 11:09:19;;;;;;;;;;;18.80;40.90;;;;;;5051827;28;19929;-60
2023/01/29 11:11:47;;;;;;;;;;;18.70;40.80;;;;;;5032924;28;19924;-62
2023/01/29 11:14:15;;;;;;;;;;;18.80;40.90;;;;;;5033884;28;19925;-60
2023/01/29 11:16:42;;;;;;;;;;;18.80;40.90;;;;;;5029373;28;19931;-60
2023/01/29 11:19:09;;;;;;;;;;;18.70;40.80;;;;;;5032042;28;19924;-61
2023/01/29 11:21:50;;;;;;;;;;;18.80;40.90;;;;;;5014430;28;20375;-59
2023/01/29 11:24:17;;;;;;;;;;;18.70;40.80;;;;;;5031916;28;19921;-60
2023/01/29 11:26:44;;;;;;;;;;;18.80;40.90;;;;;;5018797;28;19920;-61
2023/01/29 11:29:29;;;;;;;;;;;18.80;40.90;;;;;;5026356;28;19925;-60
2023/01/29 11:31:57;;;;;;;;;;;18.80;40.90;;;;;;5033488;28;19924;-62
2023/01/29 11:34:26;;;;;;;;;;;18.80;40.90;;;;;;5028448;28;19929;-62
2023/01/29 11:36:56;;;;;;;;;;;18.80;40.90;;;;;;5030266;28;19925;-65
2023/01/29 11:39:23;;;;;;;;;;;18.80;40.90;;;;;;5033753;28;19920;-62
2023/01/29 11:41:52;;;;;;;;;;;18.80;40.90;;;;;;5014973;28;19928;-64
2023/01/29 11:44:26;;;;;;;;;;;18.80;40.90;;;;;;5021605;28;19936;-58
2023/01/29 11:46:53;;;;;;;;;;;18.80;40.90;;;;;;5024442;28;19944;-59
2023/01/29 11:49:26;;;;;;;;;;;18.80;40.90;;;;;;5021466;28;19921;-64
2023/01/29 11:51:53;;;;;;;;;;;18.80;40.90;;;;;;5023332;28;19925;-63
2023/01/29 11:54:20;;;;;;;;;;;18.80;41.00;;;;;;5042460;28;19924;-62
2023/01/29 11:56:47;;;;;;;;;;;18.80;40.90;;;;;;5035543;28;19921;-59
2023/01/29 11:59:21;;;;;;;;;;;18.80;40.90;;;;;;5026449;28;20439;-60
2023/01/29 12:01:48;;;;;;;;;;;18.80;40.90;;;;;;5026699;28;19931;-65
2023/01/29 12:04:16;;;;;;;;;;;18.80;40.90;;;;;;5032982;28;19925;-61
2023/01/29 12:06:46;;;;;;;;;;;18.80;40.90;;;;;;5013118;28;19925;-65
2023/01/29 12:09:14;;;;;;;;;;;18.80;40.90;;;;;;5013476;28;19975;-60
2023/01/29 12:11:41;;;;;;;;;;;18.80;40.90;;;;;;5045781;28;19921;-59
2023/01/29 12:14:22;;;;;;;;;;;18.80;41.00;;;;;;5042226;28;19924;-63
2023/01/29 12:16:50;;;;;;;;;;;18.80;40.90;;;;;;5022182;28;19925;-60
2023/01/29 12:19:19;;;;;;;;;;;18.80;40.90;;;;;;5026974;28;19937;-64
2023/01/29 12:21:47;;;;;;;;;;;18.80;40.90;;;;;;5033286;28;19925;-68
2023/01/29 12:24:19;;;;;;;;;;;18.80;40.90;;;;;;5013877;28;19985;-60
2023/01/29 12:26:46;;;;;;;;;;;18.80;40.90;;;;;;5031270;28;19955;-61
2023/01/29 12:29:16;;;;;;;;;;;18.80;40.90;;;;;;5027561;28;19951;-59
2023/01/29 12:31:43;;;;;;;;;;;18.80;41.00;;;;;;5042074;28;19967;-65
2023/01/29 12:34:11;;;;;;;;;;;18.80;41.00;;;;;;5030718;28;19921;-59
2023/01/29 12:36:38;;;;;;;;;;;18.80;41.00;;;;;;5026379;28;19967;-62
2023/01/29 12:39:08;;;;;;;;;;;18.80;41.00;;;;;;5041866;28;19940;-62
2023/01/29 12:41:36;;;;;;;;;;;18.80;41.00;;;;;;5028880;28;19952;-60
2023/01/29 12:44:04;;;;;;;;;;;18.80;41.00;;;;;;5025958;28;20002;-62
2023/01/29 12:46:32;;;;;;;;;;;18.80;41.00;;;;;;5026726;28;19921;-62
2023/01/29 12:49:00;;;;;;;;;;;18.80;41.00;;;;;;5031263;28;19921;-68
2023/01/29 12:51:28;;;;;;;;;;;18.80;41.00;;;;;;5028422;28;19948;-60
2023/01/29 12:53:55;;;;;;;;;;;18.80;41.00;;;;;;5031277;28;19975;-63
2023/01/29 12:56:26;;;;;;;;;;;18.80;41.00;;;;;;5030254;28;20363;-60
2023/01/29 12:58:53;;;;;;;;;;;18.80;41.00;;;;;;5031546;28;19928;-61
2023/01/29 13:01:22;;;;;;;;;;;18.80;41.10;;;;;;5036726;28;19941;-59
2023/01/29 13:03:50;;;;;;;;;;;18.80;41.00;;;;;;5049205;28;19928;-59
2023/01/29 13:06:17;;;;;;;;;;;18.80;41.00;;;;;;5031100;28;19967;-59
2023/01/29 13:08:45;;;;;;;;;;;18.80;41.00;;;;;;5029439;28;20374;-62
2023/01/29 13:11:13;;;;;;;;;;;18.80;41.00;;;;;;5029882;28;19935;-66
2023/01/29 13:13:43;;;;;;;;;;;18.80;41.00;;;;;;5030914;28;20329;-62
2023/01/29 13:16:10;;;;;;;;;;;18.80;41.10;;;;;;5029915;28;19920;-60
2023/01/29 13:18:38;;;;;;;;;;;18.80;41.10;;;;;;5048629;28;19921;-61
2023/01/29 13:21:05;;;;;;;;;;;18.80;41.00;;;;;;5029067;28;19930;-69
2023/01/29 13:23:32;;;;;;;;;;;18.80;41.10;;;;;;5027888;28;19928;-61
2023/01/29 13:25:59;;;;;;;;;;;18.80;41.00;;;;;;5027417;28;20431;-61
2023/01/29 13:28:26;;;;;;;;;;;18.80;41.00;;;;;;5047509;28;19921;-63
2023/01/29 13:31:07;;;;;;;;;;;18.80;41.00;;;;;;5045971;28;19943;-65
2023/01/29 13:33:36;;;;;;;;;;;18.80;41.10;;;;;;5042600;28;19929;-70
2023/01/29 13:36:02;;;;;;;;;;;18.80;41.10;;;;;;5022370;28;19921;-58
2023/01/29 13:38:29;;;;;;;;;;;18.80;41.10;;;;;;5047180;28;19928;-61
2023/01/29 13:40:57;;;;;;;;;;;18.80;41.10;;;;;;5020432;28;19925;-62
2023/01/29 13:43:23;;;;;;;;;;;18.80;41.10;;;;;;5044603;28;19933;-64
2023/01/29 13:45:51;;;;;;;;;;;18.80;41.10;;;;;;5024857;28;19982;-64
2023/01/29 13:48:20;;;;;;;;;;;18.90;41.20;;;;;;5024245;28;19921;-63
2023/01/29 13:50:48;;;;;;;;;;;18.80;41.10;;;;;;5037145;28;19963;-59
2023/01/29 13:53:19;;;;;;;;;;;18.90;41.20;;;;;;5029985;28;19929;-60
2023/01/29 13:55:46;;;;;;;;;;;18.80;41.10;;;;;;5022146;28;19996;-61
2023/01/29 13:58:14;;;;;;;;;;;18.90;41.30;;;;;;5034621;28;19924;-63
2023/01/29 14:00:50;;;;;;;;;;;18.90;41.20;;;;;;5030627;28;19982;-64
2023/01/29 14:03:47;;;;;;;;;;;18.90;41.30;;;;;;5029478;28;19921;-71
2023/01/29 14:06:19;;;;;;;;;;;18.80;41.20;;;;;;4957707;28;19922;-63
2023/01/29 14:08:46;;;;;;;;;;;18.90;41.30;;;;;;5012516;28;19972;-66
2023/01/29 14:11:34;;;;;;;;;;;18.90;41.30;;;;;;5036726;28;19920;-60
2023/01/29 14:14:01;;;;;;;;;;;18.90;41.30;;;;;;5036175;28;19931;-61
2023/01/29 14:16:36;;;;;;;;;;;18.90;41.40;;;;;;5026438;28;19932;-64
2023/01/29 14:19:03;;;;;;;;;;;18.90;41.40;;;;;;5029809;28;19975;-65
2023/01/29 14:21:32;;;;;;;;;;;18.90;42.00;;;;;;5027410;28;19983;-60
2023/01/29 14:23:59;;;;;;;;;;;18.90;41.50;;;;;;5030174;28;19943;-61
2023/01/29 14:26:27;;;;;;;;;;;18.90;41.60;;;;;;5042497;28;19924;-68
2023/01/29 14:28:59;;;;;;;;;;;18.90;41.60;;;;;;5047963;28;20167;-59
2023/01/29 14:31:30;;;;;;;;;;;18.90;41.60;;;;;;5025443;28;19925;-71
2023/01/29 14:34:00;;;;;;;;;;;18.90;41.60;;;;;;5030159;28;19920;-59
2023/01/29 14:36:27;;;;;;;;;;;18.90;41.70;;;;;;5025652;28;19974;-59
2023/01/29 14:38:58;;;;;;;;;;;19.00;41.90;;;;;;5047483;28;19921;-59
2023/01/29 14:41:25;;;;;;;;;;;19.00;41.90;;;;;;5024066;28;19921;-66
2023/01/29 14:43:52;;;;;;;;;;;18.90;41.80;;;;;;5030045;28;19921;-64
2023/01/29 14:46:37;;;;;;;;;;;18.90;41.90;;;;;;5044886;28;19929;-65
2023/01/29 14:49:04;;;;;;;;;;;19.00;42.00;;;;;;5042587;28;19925;-58
2023/01/29 14:51:32;;;;;;;;;;;19.00;42.00;;;;;;5046079;28;19924;-61